LTBAORER

Guest
Details From LTBA - Istanbul Ataturk
To ORER - Erbil Intl
Flight Number -
Tags Generated
Created
Modified
Stats Distance 764 nm / 1,416 km
Max Altitude 0 ft / 0 m
Waypoints 2
Social Downloads 2
Likes 0
Share VATSIM

Download

Looking for another format? Having issues loading an existing format? Contact us
Advertisement - Login to hide

Notes

Generated

Route

LTBA ORER

ID Type Via Altitude Latitude Longitude Leg Dist Tot Dist Heading (true) Name
O LTBA APT - 0 ft / 0 m 40.96559˚ 28.80986˚ - 0 nm - -
O ORER APT - 0 ft / 0 m 36.24080˚ 43.96429˚ 764 nm 764 nm 107° / 116° ERBIL INTL

Altitude Profile

Advertisement - Login to hide

Weather


0- 5 10 15 20 25 30 35+ Temperature / ° C

Clouds and Precipitation
Forecast for 2017-12-11 06:00 UTC. Updated an hour ago

Ground ~20,000 ft ~40,000 ft Winds

LTBA

Details ICAO LTBA (IST)
Name Istanbul Ataturk
Region Turkey
Timezone Europe/Istanbul (UTC+3.0)
Stats Elevation 163 ft / 50 m (AMSL)
Location 40.979136° 28.812832°
Runways 3
Magnetic Variation 5.428° E

METAR

LTBA 110550Z 22010KT CAVOK 11/04 Q1022 NOSIG RMK RWY17L 23009KT RWY05 21010KT RWY23 23011KT

Decode

TAF

Not found

Departure Runways

ID Width Length Bearing (true) Bearing (mag) Surface Threshold Offset Overrun Length
05 197 ft / 60 m 8,514 ft / 2,595 m 58.64° 53.21° Concrete 400 ft / 122 m 197 ft / 60 m
17L 148 ft / 45 m 9,820 ft / 2,993 m 178.48° 173.05° Concrete 0 ft / 0 m 197 ft / 60 m
17R 148 ft / 45 m 9,858 ft / 3,005 m 178.49° 173.06° Concrete 0 ft / 0 m 0 ft / 0 m
23 197 ft / 60 m 8,514 ft / 2,595 m 238.65° 233.22° Concrete 0 ft / 0 m 197 ft / 60 m
35L 148 ft / 45 m 9,858 ft / 3,005 m 358.49° 353.06° Concrete 0 ft / 0 m 200 ft / 61 m
35R 148 ft / 45 m 9,820 ft / 2,993 m 358.48° 353.05° Concrete 0 ft / 0 m 197 ft / 60 m

ORER

Details ICAO ORER (EBL)
Name ERBIL INTL
Region Iraq
Timezone Asia/Baghdad (UTC+3.0)
Stats Elevation 1,341 ft / 409 m (AMSL)
Location 36.237450° 43.959191°
Runways 3
Magnetic Variation 5.243° E

METAR

ORER 110500Z 30006KT 7000 NSC 01/00 Q1027 NOSIG

Decode

TAF

Not found

Destination Runways

ID Width Length Bearing (true) Bearing (mag) Surface Threshold Offset Overrun Length
15 95 ft / 29 m 9,209 ft / 2,807 m 151.77° 146.53° Asphalt 0 ft / 0 m 185 ft / 56 m
15L 105 ft / 32 m 4,089 ft / 1,246 m 151.76° 146.52° Asphalt 0 ft / 0 m 0 ft / 0 m
18 225 ft / 69 m 13,864 ft / 4,226 m 180.44° 175.20° Asphalt 0 ft / 0 m 0 ft / 0 m
33 95 ft / 29 m 9,209 ft / 2,807 m 331.78° 326.54° Asphalt 0 ft / 0 m 185 ft / 56 m
33R 105 ft / 32 m 4,089 ft / 1,246 m 331.76° 326.52° Asphalt 0 ft / 0 m 0 ft / 0 m
36 225 ft / 69 m 13,864 ft / 4,226 m 0.44° 355.20° Asphalt 0 ft / 0 m 0 ft / 0 m

Popular Alternatives